Time;durP1;ratioP1;P1;durP2;ratioP2;P2;SDS_P1;SDS_P2;PMS_P1;PMS_P2;Temp;Humidity;BMP_temperature;BMP_pressure;BME280_temperature;BME280_humidity;BME280_pressure;Samples;Min_cycle;Max_cycle;Signal;HPM_P1;HPM_P2
2022/04/10 00:01:12;;;;;;;;;;;;;;;1.93;84.61;98739.09;8409785;28;20406;-71
2022/04/10 00:05:13;;;;;;;;;;;;;;;1.97;85.12;98729.50;8404037;28;19967;-71
2022/04/10 00:09:14;;;;;;;;;;;;;;;1.92;85.76;98737.47;8404025;28;20153;-72
2022/04/10 00:13:15;;;;;;;;;;;;;;;1.99;85.93;98732.72;8406630;28;19971;-71
2022/04/10 00:17:15;;;;;;;;;;;;;;;1.87;86.38;98740.13;8408280;28;19967;-72
2022/04/10 00:21:17;;;;;;;;;;;;;;;1.88;86.29;98747.06;8404370;28;19977;-72
2022/04/10 00:25:18;;;;;;;;;;;;;;;1.79;86.66;98748.63;8400948;28;20055;-71
2022/04/10 00:29:19;;;;;;;;;;;;;;;1.76;87.39;98753.66;8409606;28;19993;-72
2022/04/10 00:33:20;;;;;;;;;;;;;;;1.74;87.43;98745.94;8397209;28;19979;-71
2022/04/10 00:37:21;;;;;;;;;;;;;;;1.66;87.23;98746.41;8399309;28;20414;-71
2022/04/10 00:41:21;;;;;;;;;;;;;;;1.68;87.76;98746.97;8413367;28;19971;-71
2022/04/10 00:45:23;;;;;;;;;;;;;;;1.59;88.06;98748.50;8401007;28;20330;-71
2022/04/10 00:49:23;;;;;;;;;;;;;;;1.54;87.96;98751.16;8385602;28;20026;-72
2022/04/10 00:53:24;;;;;;;;;;;;;;;1.50;88.18;98755.38;8407664;28;19971;-72
2022/04/10 00:57:25;;;;;;;;;;;;;;;1.58;88.68;98762.91;8414635;28;20071;-71
2022/04/10 01:01:26;;;;;;;;;;;;;;;1.57;88.33;98755.97;8424224;28;20030;-71
2022/04/10 01:05:26;;;;;;;;;;;;;;;1.59;88.76;98759.16;8421747;28;20494;-71
2022/04/10 01:09:27;;;;;;;;;;;;;;;1.59;88.54;98769.78;8399410;28;20345;-72
2022/04/10 01:13:28;;;;;;;;;;;;;;;1.66;88.36;98770.38;8381245;28;19999;-72
2022/04/10 01:17:30;;;;;;;;;;;;;;;1.64;88.31;98783.13;8398799;28;20057;-72
2022/04/10 01:21:39;;;;;;;;;;;;;;;1.70;88.46;98782.91;8415262;28;20006;-72
2022/04/10 01:25:40;;;;;;;;;;;;;;;1.67;88.43;98777.31;8399701;28;20025;-71
2022/04/10 01:29:40;;;;;;;;;;;;;;;1.59;88.48;98780.44;8400702;28;20450;-71
2022/04/10 01:33:41;;;;;;;;;;;;;;;1.53;88.41;98784.16;8405695;28;20308;-71
2022/04/10 01:37:42;;;;;;;;;;;;;;;1.57;88.93;98787.91;8397186;28;20066;-71
2022/04/10 01:41:45;;;;;;;;;;;;;;;1.61;88.35;98791.66;8394965;28;20354;-71
2022/04/10 01:45:46;;;;;;;;;;;;;;;1.71;88.04;98794.34;8397745;28;19975;-71
2022/04/10 01:49:46;;;;;;;;;;;;;;;1.64;88.08;98801.75;8398056;28;20491;-71
2022/04/10 01:53:47;;;;;;;;;;;;;;;1.65;88.45;98800.72;8412303;28;20078;-71
2022/04/10 01:57:48;;;;;;;;;;;;;;;1.59;88.65;98802.53;8397764;28;19974;-72
2022/04/10 02:01:49;;;;;;;;;;;;;;;1.73;88.07;98818.88;8413957;28;20457;-72
2022/04/10 02:05:50;;;;;;;;;;;;;;;1.65;88.34;98819.34;8428121;28;19998;-71
2022/04/10 02:09:50;;;;;;;;;;;;;;;1.65;88.11;98816.69;8402031;28;20081;-72
2022/04/10 02:13:51;;;;;;;;;;;;;;;1.62;87.93;98822.53;8426322;28;20006;-72
2022/04/10 02:17:52;;;;;;;;;;;;;;;1.49;88.04;98828.28;8410503;28;19987;-72
2022/04/10 02:21:57;;;;;;;;;;;;;;;1.54;88.29;98825.66;8417074;28;20019;-71
2022/04/10 02:25:57;;;;;;;;;;;;;;;1.47;88.80;98825.91;8397531;28;20096;-72
2022/04/10 02:29:58;;;;;;;;;;;;;;;1.44;88.72;98825.59;8424192;28;20081;-72
2022/04/10 02:34:00;;;;;;;;;;;;;;;1.45;89.13;98843.16;8400222;28;20025;-72
2022/04/10 02:38:01;;;;;;;;;;;;;;;1.58;88.83;98837.41;8392920;28;19968;-72
2022/04/10 02:42:02;;;;;;;;;;;;;;;1.48;88.80;98842.69;8402696;28;19998;-72
2022/04/10 02:46:02;;;;;;;;;;;;;;;1.48;88.57;98842.69;8413985;28;19982;-71
2022/04/10 02:50:04;;;;;;;;;;;;;;;1.54;88.94;98846.94;8396444;28;19986;-71
2022/04/10 02:54:05;;;;;;;;;;;;;;;1.45;88.87;98843.16;8401771;28;19971;-72
2022/04/10 02:58:06;;;;;;;;;;;;;;;1.30;89.60;98851.03;8397944;28;19994;-71
2022/04/10 03:02:06;;;;;;;;;;;;;;;1.19;90.01;98845.66;8419330;28;20438;-71
2022/04/10 03:06:07;;;;;;;;;;;;;;;1.10;90.48;98841.06;8409361;28;20057;-71
2022/04/10 03:10:08;;;;;;;;;;;;;;;1.01;90.83;98847.88;8406595;28;19987;-72
2022/04/10 03:14:10;;;;;;;;;;;;;;;0.96;91.53;98851.28;8406907;28;19971;-72
2022/04/10 03:18:11;;;;;;;;;;;;;;;0.92;91.19;98866.16;8396135;28;19967;-71
2022/04/10 03:22:11;;;;;;;;;;;;;;;0.97;91.67;98868.84;8399759;28;19998;-72
2022/04/10 03:26:12;;;;;;;;;;;;;;;0.97;91.28;98871.50;8401789;28;20062;-72
2022/04/10 03:30:13;;;;;;;;;;;;;;;0.92;91.89;98876.78;8406765;28;20033;-71
2022/04/10 03:34:14;;;;;;;;;;;;;;;0.81;92.09;98875.06;8399596;28;20389;-72
2022/04/10 03:38:14;;;;;;;;;;;;;;;0.72;92.58;98880.06;8398538;28;20419;-71
2022/04/10 03:42:16;;;;;;;;;;;;;;;0.74;92.66;98879.81;8404936;28;20065;-71
2022/04/10 03:46:17;;;;;;;;;;;;;;;0.76;92.94;98894.44;8364423;28;20061;-72
2022/04/10 03:50:17;;;;;;;;;;;;;;;0.70;92.79;98889.31;8398387;28;20514;-72
2022/04/10 03:54:18;;;;;;;;;;;;;;;0.73;93.22;98899.47;8397676;28;19971;-72
2022/04/10 03:58:19;;;;;;;;;;;;;;;0.73;92.90;98915.41;8400331;28;19974;-72
2022/04/10 04:02:22;;;;;;;;;;;;;;;0.77;92.63;98927.13;8397739;28;20024;-72
2022/04/10 04:06:23;;;;;;;;;;;;;;;0.79;92.74;98920.50;8395976;28;20338;-72
2022/04/10 04:10:24;;;;;;;;;;;;;;;1.11;92.06;98928.53;8397858;28;20093;-72
2022/04/10 04:14:25;;;;;;;;;;;;;;;1.11;91.67;98933.88;8394067;28;19967;-73
2022/04/10 04:18:26;;;;;;;;;;;;;;;1.03;91.63;98947.63;8391265;28;20511;-72
2022/04/10 04:22:26;;;;;;;;;;;;;;;0.99;91.87;98951.84;8394165;28;20054;-73
2022/04/10 04:26:27;;;;;;;;;;;;;;;0.96;92.18;98956.84;8408375;28;20058;-72
2022/04/10 04:30:28;;;;;;;;;;;;;;;0.97;92.40;98959.25;8394325;28;19983;-72
2022/04/10 04:34:29;;;;;;;;;;;;;;;1.01;92.11;98965.69;8396526;28;19967;-72
2022/04/10 04:38:30;;;;;;;;;;;;;;;1.02;92.14;98971.81;8395315;28;19967;-72
2022/04/10 04:42:30;;;;;;;;;;;;;;;1.22;91.66;98970.16;8394793;28;20368;-72
2022/04/10 04:46:32;;;;;;;;;;;;;;;1.52;90.62;98979.50;8397600;28;20077;-72
2022/04/10 04:50:32;;;;;;;;;;;;;;;1.59;89.95;98977.41;8397330;28;20512;-71
2022/04/10 04:54:34;;;;;;;;;;;;;;;1.74;89.03;98996.19;8403411;28;20427;-72
2022/04/10 04:58:34;;;;;;;;;;;;;;;1.81;88.99;99002.09;8398339;28;20434;-72
2022/04/10 05:02:35;;;;;;;;;;;;;;;1.87;88.51;99006.41;8398078;28;20160;-72
2022/04/10 05:06:36;;;;;;;;;;;;;;;1.86;88.21;99004.78;8398110;28;19974;-73
2022/04/10 05:10:37;;;;;;;;;;;;;;;1.87;88.63;99017.06;8405957;28;20376;-72
2022/04/10 05:14:38;;;;;;;;;;;;;;;1.94;87.87;99017.66;8405275;28;19981;-72
2022/04/10 05:18:39;;;;;;;;;;;;;;;1.97;87.85;99022.47;8411658;28;20446;-72
2022/04/10 05:22:39;;;;;;;;;;;;;;;2.02;87.19;99035.81;8420575;28;20453;-72
2022/04/10 05:26:42;;;;;;;;;;;;;;;2.09;87.19;99047.06;8408244;28;19973;-72
2022/04/10 05:30:43;;;;;;;;;;;;;;;2.22;86.90;99039.72;8410307;28;19983;-70
2022/04/10 05:34:45;;;;;;;;;;;;;;;2.27;86.71;99042.41;8378886;28;19998;-70
2022/04/10 05:38:46;;;;;;;;;;;;;;;2.33;86.51;99046.69;8399424;28;19975;-69
2022/04/10 05:42:47;;;;;;;;;;;;;;;2.35;85.96;99060.56;8412637;28;20404;-69
2022/04/10 05:46:48;;;;;;;;;;;;;;;2.22;86.47;99066.34;8402492;28;19970;-69
2022/04/10 05:50:49;;;;;;;;;;;;;;;2.24;86.78;99069.53;8407183;28;19986;-72
2022/04/10 05:54:50;;;;;;;;;;;;;;;2.31;86.48;99070.13;8397840;28;19997;-72
2022/04/10 05:58:50;;;;;;;;;;;;;;;2.41;86.03;99080.88;8400532;28;19965;-69
2022/04/10 06:02:51;;;;;;;;;;;;;;;2.51;85.30;99091.59;8418545;28;20469;-70
2022/04/10 06:06:52;;;;;;;;;;;;;;;2.64;84.90;99085.84;8399112;28;20010;-69
2022/04/10 06:10:53;;;;;;;;;;;;;;;2.73;84.57;99084.28;8397958;28;19987;-70
2022/04/10 06:14:54;;;;;;;;;;;;;;;2.83;84.44;99087.00;8397868;28;19971;-70
2022/04/10 06:18:55;;;;;;;;;;;;;;;2.87;83.48;99085.41;8395025;28;20066;-69
2022/04/10 06:22:56;;;;;;;;;;;;;;;2.90;83.36;99089.44;8400796;28;19974;-70
2022/04/10 06:26:57;;;;;;;;;;;;;;;2.89;83.37;99099.31;8412676;28;19971;-70
2022/04/10 06:30:58;;;;;;;;;;;;;;;3.13;82.08;99088.19;8404314;28;20508;-70
2022/04/10 06:34:59;;;;;;;;;;;;;;;3.16;82.12;99099.19;8396781;28;19971;-70
2022/04/10 06:39:00;;;;;;;;;;;;;;;3.25;81.45;99102.94;8398145;28;20391;-70
2022/04/10 06:43:01;;;;;;;;;;;;;;;3.33;81.29;99098.97;8397969;28;20017;-69
2022/04/10 06:47:02;;;;;;;;;;;;;;;3.37;80.77;99106.19;8345462;28;19978;-69
2022/04/10 06:51:05;;;;;;;;;;;;;;;3.36;80.40;99119.81;8399713;28;20410;-69
2022/04/10 06:55:06;;;;;;;;;;;;;;;3.28;79.97;99112.28;8386210;28;20019;-70
2022/04/10 06:59:07;;;;;;;;;;;;;;;3.25;79.21;99115.47;8415229;28;19971;-70
2022/04/10 07:03:08;;;;;;;;;;;;;;;3.07;80.15;99118.63;8417035;28;20373;-70
2022/04/10 07:07:09;;;;;;;;;;;;;;;3.18;80.08;99117.56;8403715;28;20024;-70
2022/04/10 07:11:10;;;;;;;;;;;;;;;3.29;80.11;99124.56;8404729;28;19991;-70
2022/04/10 07:15:11;;;;;;;;;;;;;;;3.44;79.92;99127.28;8402098;28;20006;-70
2022/04/10 07:19:11;;;;;;;;;;;;;;;3.53;78.08;99125.75;8404479;28;20438;-70
2022/04/10 07:27:31;;;;;;;;;;;;;;;3.66;76.88;99133.25;8395395;28;19967;-72
2022/04/10 07:31:32;;;;;;;;;;;;;;;3.74;76.78;99138.09;8400089;28;20028;-72
2022/04/10 07:35:34;;;;;;;;;;;;;;;3.72;75.33;99134.88;8408988;28;20389;-72
2022/04/10 07:39:35;;;;;;;;;;;;;;;3.79;74.54;99140.78;8395702;28;19986;-72
2022/04/10 07:43:36;;;;;;;;;;;;;;;3.85;73.02;99143.47;8395439;28;20070;-72
2022/04/10 07:47:36;;;;;;;;;;;;;;;3.85;73.32;99144.25;8392841;28;19975;-73
2022/04/10 07:51:37;;;;;;;;;;;;;;;3.80;73.77;99142.38;8387279;28;20446;-73
2022/04/10 07:55:38;;;;;;;;;;;;;;;3.87;73.59;99146.66;8406674;28;19980;-72
2022/04/10 07:59:39;;;;;;;;;;;;;;;3.90;71.92;99146.13;8393768;28;19989;-73
2022/04/10 08:03:40;;;;;;;;;;;;;;;3.96;71.58;99150.44;8393568;28;20342;-72
2022/04/10 08:07:41;;;;;;;;;;;;;;;4.02;72.08;99149.38;8393519;28;19976;-73
2022/04/10 08:11:42;;;;;;;;;;;;;;;4.27;70.12;99146.72;8396437;28;20446;-72
2022/04/10 08:15:43;;;;;;;;;;;;;;;4.45;69.62;99138.16;8392564;28;19978;-71
2022/04/10 08:19:43;;;;;;;;;;;;;;;4.75;68.30;99152.59;8392050;28;19968;-70
2022/04/10 08:23:44;;;;;;;;;;;;;;;5.13;66.51;99149.31;8390777;28;19975;-70
2022/04/10 08:27:45;;;;;;;;;;;;;;;5.48;64.38;99164.47;8400100;28;20342;-70
2022/04/10 08:31:46;;;;;;;;;;;;;;;5.31;63.93;99155.94;8380513;28;20514;-70
2022/04/10 08:35:47;;;;;;;;;;;;;;;5.28;63.51;99157.31;8395163;28;19967;-71
2022/04/10 08:39:48;;;;;;;;;;;;;;;5.66;64.01;99163.06;8395739;28;20073;-71
2022/04/10 08:43:49;;;;;;;;;;;;;;;5.81;62.48;99155.75;8396258;28;20044;-70
2022/04/10 08:47:50;;;;;;;;;;;;;;;5.71;60.44;99161.13;8392666;28;20017;-71
2022/04/10 08:51:51;;;;;;;;;;;;;;;5.66;61.10;99163.06;8397287;28;20025;-70
2022/04/10 08:55:52;;;;;;;;;;;;;;;5.45;60.63;99165.81;8398059;28;19971;-70
2022/04/10 08:59:55;;;;;;;;;;;;;;;5.44;61.58;99166.91;8395335;28;19974;-70
2022/04/10 09:03:56;;;;;;;;;;;;;;;5.56;61.14;99173.81;8396035;28;19976;-70
2022/04/10 09:08:13;;;;;;;;;;;;;;;5.60;61.13;99180.25;8397444;28;19973;-70
2022/04/10 09:12:14;;;;;;;;;;;;;;;5.67;61.50;99191.44;8396485;28;19991;-70
2022/04/10 09:16:22;;;;;;;;;;;;;;;5.73;61.45;99190.34;8394721;28;20423;-70
2022/04/10 09:20:22;;;;;;;;;;;;;;;5.82;61.61;99169.94;8395355;28;20492;-70
2022/04/10 09:24:23;;;;;;;;;;;;;;;5.92;60.68;99177.97;8393416;28;19978;-70
2022/04/10 09:28:41;;;;;;;;;;;;;;;5.82;59.18;99167.25;8396420;28;19967;-70
2022/04/10 09:32:47;;;;;;;;;;;;;;;5.76;60.56;99179.09;8392983;28;20323;-71
2022/04/10 09:37:00;;;;;;;;;;;;;;;5.79;61.69;99181.22;8393828;28;20442;-71
2022/04/10 09:41:11;;;;;;;;;;;;;;;5.75;62.71;99177.50;8364423;28;20338;-71
2022/04/10 09:45:28;;;;;;;;;;;;;;;5.77;65.02;99175.31;8395365;28;20049;-71
2022/04/10 09:49:32;;;;;;;;;;;;;;;5.64;64.57;99181.28;8393333;28;20013;-71
2022/04/10 09:53:34;;;;;;;;;;;;;;;5.74;66.87;99186.59;8392646;28;20479;-73
2022/04/10 09:57:34;;;;;;;;;;;;;;;6.03;67.10;99179.50;8391294;28;19967;-73
2022/04/10 10:01:35;;;;;;;;;;;;;;;6.36;65.99;99173.41;8392259;28;20544;-72
2022/04/10 10:05:37;;;;;;;;;;;;;;;6.49;63.34;99171.16;8376033;28;19975;-72
2022/04/10 10:09:38;;;;;;;;;;;;;;;6.47;63.08;99178.69;8393164;28;20403;-73
2022/04/10 10:13:39;;;;;;;;;;;;;;;6.24;63.43;99175.63;8391159;28;19967;-72
2022/04/10 10:17:43;;;;;;;;;;;;;;;6.13;65.78;99184.81;8393761;28;19982;-72
2022/04/10 10:21:45;;;;;;;;;;;;;;;5.93;66.29;99176.88;8393048;28;20050;-73
2022/04/10 10:26:03;;;;;;;;;;;;;;;6.08;65.58;99179.47;8393327;28;19975;-72
2022/04/10 10:30:07;;;;;;;;;;;;;;;6.56;63.46;99167.06;8393023;28;20464;-73
2022/04/10 10:34:09;;;;;;;;;;;;;;;6.90;62.24;99172.41;8395270;28;20094;-72
2022/04/10 10:38:20;;;;;;;;;;;;;;;7.16;60.27;99171.09;8393756;28;20382;-73
2022/04/10 10:42:21;;;;;;;;;;;;;;;6.67;57.62;99178.50;8394685;28;20058;-71
2022/04/10 10:46:22;;;;;;;;;;;;;;;6.55;58.84;99180.78;8393030;28;19971;-72
2022/04/10 10:50:27;;;;;;;;;;;;;;;6.56;59.74;99182.38;8392250;28;19983;-71
2022/04/10 10:54:32;;;;;;;;;;;;;;;6.84;55.08;99178.09;8392920;28;19975;-72
2022/04/10 10:58:33;;;;;;;;;;;;;;;7.13;55.07;99177.03;8393418;28;19968;-71
2022/04/10 11:02:37;;;;;;;;;;;;;;;7.51;53.43;99171.75;8393644;28;19973;-71
2022/04/10 11:06:45;;;;;;;;;;;;;;;7.75;52.56;99167.19;8392070;28;19973;-72
2022/04/10 11:10:56;;;;;;;;;;;;;;;7.53;54.07;99174.97;8390399;28;20355;-72
2022/04/10 11:15:01;;;;;;;;;;;;;;;7.62;54.21;99179.44;8388977;28;19967;-72
2022/04/10 11:19:02;;;;;;;;;;;;;;;8.00;54.12;99180.28;8394549;28;20063;-73
2022/04/10 11:23:03;;;;;;;;;;;;;;;8.03;53.88;99174.34;8395439;28;19978;-72
2022/04/10 11:27:05;;;;;;;;;;;;;;;7.77;52.51;99165.03;8394348;28;20383;-72
2022/04/10 11:31:09;;;;;;;;;;;;;;;7.95;51.66;99176.88;8348046;28;19990;-71
2022/04/10 11:35:14;;;;;;;;;;;;;;;7.81;52.16;99160.66;8393668;28;19967;-72
2022/04/10 11:39:16;;;;;;;;;;;;;;;7.75;52.47;99161.81;8393994;28;19982;-75
2022/04/10 11:43:18;;;;;;;;;;;;;;;7.71;53.16;99171.53;8393914;28;19967;-74
2022/04/10 11:47:19;;;;;;;;;;;;;;;7.74;52.96;99187.09;8387151;28;20302;-74
2022/04/10 11:51:20;;;;;;;;;;;;;;;7.46;52.95;99198.69;8389869;28;19983;-75
2022/04/10 11:55:20;;;;;;;;;;;;;;;7.84;53.45;99197.72;8403450;28;19968;-74
2022/04/10 11:59:21;;;;;;;;;;;;;;;7.86;52.80;99198.22;8406426;28;20013;-75
2022/04/10 12:03:24;;;;;;;;;;;;;;;8.24;54.05;99211.72;8393731;28;19968;-75
2022/04/10 12:07:24;;;;;;;;;;;;;;;8.41;54.34;99195.88;8391424;28;19975;-75
2022/04/10 12:11:27;;;;;;;;;;;;;;;8.66;53.76;99187.44;8392878;28;19991;-74
2022/04/10 12:15:28;;;;;;;;;;;;;;;8.78;48.83;99185.06;8392958;28;19971;-74
2022/04/10 12:19:34;;;;;;;;;;;;;;;8.88;48.44;99184.88;8389314;28;20427;-76
2022/04/10 12:23:35;;;;;;;;;;;;;;;9.23;48.88;99170.00;8392311;28;20013;-72
2022/04/10 12:27:37;;;;;;;;;;;;;;;9.30;47.67;99185.78;8394290;28;19967;-72
2022/04/10 12:31:39;;;;;;;;;;;;;;;9.06;46.06;99174.34;8387857;28;20137;-71
2022/04/10 12:35:40;;;;;;;;;;;;;;;9.21;46.16;99182.16;8381748;28;19976;-72
2022/04/10 12:39:41;;;;;;;;;;;;;;;8.81;47.07;99195.25;8380669;28;19975;-73
2022/04/10 12:43:42;;;;;;;;;;;;;;;8.39;47.96;99190.00;8387362;28;19967;-72
2022/04/10 12:47:44;;;;;;;;;;;;;;;8.13;46.97;99183.34;8387737;28;20010;-73
2022/04/10 12:51:52;;;;;;;;;;;;;;;7.87;44.38;99207.91;8388124;28;19993;-72
2022/04/10 12:55:53;;;;;;;;;;;;;;;7.74;45.50;99186.28;8371328;28;19990;-72
2022/04/10 12:59:54;;;;;;;;;;;;;;;7.70;44.68;99196.81;8387470;28;20013;-72
2022/04/10 13:03:56;;;;;;;;;;;;;;;7.92;45.85;99178.25;8392746;28;20442;-72
2022/04/10 13:07:59;;;;;;;;;;;;;;;8.39;45.95;99171.97;8392593;28;20431;-72
2022/04/10 13:11:59;;;;;;;;;;;;;;;8.68;45.72;99185.22;8397720;28;19998;-73
2022/04/10 13:16:09;;;;;;;;;;;;;;;8.63;46.63;99174.53;8399462;28;19971;-72
2022/04/10 13:20:11;;;;;;;;;;;;;;;8.80;45.80;99172.09;8399281;28;19971;-72
2022/04/10 13:24:12;;;;;;;;;;;;;;;9.19;45.77;99152.03;8398834;28;20062;-72
2022/04/10 13:28:13;;;;;;;;;;;;;;;10.75;42.71;99163.22;8376294;28;19972;-71
2022/04/10 13:32:14;;;;;;;;;;;;;;;10.32;42.29;99169.09;8378887;28;19983;-72
2022/04/10 13:36:15;;;;;;;;;;;;;;;11.50;40.93;99171.22;8398676;28;19978;-72
2022/04/10 13:40:16;;;;;;;;;;;;;;;12.89;38.67;99168.34;8398709;28;20406;-72
2022/04/10 13:44:18;;;;;;;;;;;;;;;12.34;37.64;99180.97;8396415;28;20441;-72
2022/04/10 13:48:19;;;;;;;;;;;;;;;11.69;40.17;99181.78;8398364;28;19971;-72
2022/04/10 13:52:20;;;;;;;;;;;;;;;11.79;40.77;99186.97;8396309;28;20045;-71
2022/04/10 13:56:21;;;;;;;;;;;;;;;12.75;39.55;99178.56;8398367;28;20392;-73
2022/04/10 14:00:21;;;;;;;;;;;;;;;13.82;38.25;99184.63;8397873;28;20024;-72
2022/04/10 14:04:22;;;;;;;;;;;;;;;15.09;35.63;99176.91;8429708;28;20321;-73
2022/04/10 14:08:23;;;;;;;;;;;;;;;15.46;35.99;99175.03;8395468;28;20014;-72
2022/04/10 14:12:24;;;;;;;;;;;;;;;15.32;34.72;99180.81;8397720;28;19987;-73
2022/04/10 14:16:25;;;;;;;;;;;;;;;15.70;35.12;99185.19;8398807;28;19975;-73
2022/04/10 14:20:26;;;;;;;;;;;;;;;16.25;34.87;99179.91;8396902;28;19975;-72
2022/04/10 14:24:27;;;;;;;;;;;;;;;17.71;33.10;99184.69;8397173;28;20056;-72
2022/04/10 14:28:29;;;;;;;;;;;;;;;17.73;32.25;99160.53;8396853;28;20001;-73
2022/04/10 14:32:31;;;;;;;;;;;;;;;17.98;32.45;99177.47;8395158;28;19987;-73
2022/04/10 14:36:32;;;;;;;;;;;;;;;19.03;30.36;99193.78;8396426;28;19970;-72
2022/04/10 14:40:33;;;;;;;;;;;;;;;18.53;29.93;99187.28;8393510;28;20484;-73
2022/04/10 14:44:34;;;;;;;;;;;;;;;18.85;29.82;99193.44;8394699;28;19971;-73
2022/04/10 14:48:35;;;;;;;;;;;;;;;17.04;31.01;99189.16;8392847;28;19971;-73
2022/04/10 14:52:36;;;;;;;;;;;;;;;17.20;32.01;99181.81;8394873;28;19987;-72
2022/04/10 14:56:36;;;;;;;;;;;;;;;17.02;32.10;99188.75;8395707;28;20361;-73
2022/04/10 15:00:37;;;;;;;;;;;;;;;17.36;30.52;99189.22;8393301;28;19978;-73
2022/04/10 15:04:38;;;;;;;;;;;;;;;16.19;32.28;99197.63;8376529;28;19971;-73
2022/04/10 15:08:39;;;;;;;;;;;;;;;17.15;31.90;99187.53;8395141;28;20423;-74
2022/04/10 15:12:40;;;;;;;;;;;;;;;17.13;30.00;99192.53;8395217;28;19994;-73
2022/04/10 15:16:40;;;;;;;;;;;;;;;17.90;29.95;99198.41;8409097;28;19978;-72
2022/04/10 15:20:41;;;;;;;;;;;;;;;17.48;29.83;99208.25;8394721;28;20404;-72
2022/04/10 15:24:42;;;;;;;;;;;;;;;14.43;34.29;99209.50;8391673;28;19975;-72
2022/04/10 15:28:43;;;;;;;;;;;;;;;12.65;38.40;99216.81;8393696;28;19970;-72
2022/04/10 15:32:46;;;;;;;;;;;;;;;10.90;42.12;99216.84;8392294;28;20353;-72
2022/04/10 15:36:47;;;;;;;;;;;;;;;10.30;44.83;99214.50;8370559;28;19968;-72
2022/04/10 15:40:49;;;;;;;;;;;;;;;9.81;48.83;99233.31;8405663;28;19971;-72
2022/04/10 15:44:49;;;;;;;;;;;;;;;8.81;52.51;99232.94;8381355;28;20018;-72
2022/04/10 15:48:50;;;;;;;;;;;;;;;8.59;53.98;99266.94;8380701;28;20434;-72
2022/04/10 15:52:51;;;;;;;;;;;;;;;7.36;60.40;99260.59;8393432;28;19983;-71
2022/04/10 15:56:53;;;;;;;;;;;;;;;6.55;63.81;99250.53;8353589;28;19968;-73
2022/04/10 16:00:54;;;;;;;;;;;;;;;7.30;62.38;99241.03;8379985;28;19967;-72
2022/04/10 16:04:55;;;;;;;;;;;;;;;8.23;59.42;99253.16;8392903;28;20410;-72
2022/04/10 16:08:58;;;;;;;;;;;;;;;9.45;56.90;99252.88;8390260;28;19987;-72
2022/04/10 16:13:00;;;;;;;;;;;;;;;9.97;55.66;99253.50;8388550;28;20011;-73
2022/04/10 16:17:01;;;;;;;;;;;;;;;9.94;53.75;99254.09;8394707;28;20453;-72
2022/04/10 16:21:02;;;;;;;;;;;;;;;9.30;54.45;99255.84;8393472;28;19976;-73
2022/04/10 16:25:03;;;;;;;;;;;;;;;8.62;55.10;99256.38;8395161;28;19975;-73
2022/04/10 16:33:24;;;;;;;;;;;;;;;7.92;57.43;99253.56;8390724;28;19994;-72
2022/04/10 16:37:26;;;;;;;;;;;;;;;7.55;58.61;99258.81;8394072;28;19975;-72
2022/04/10 16:41:28;;;;;;;;;;;;;;;7.49;59.17;99259.94;8393893;28;19971;-72
2022/04/10 16:45:30;;;;;;;;;;;;;;;7.64;60.27;99262.47;8398633;28;20327;-73
2022/04/10 16:49:31;;;;;;;;;;;;;;;7.65;60.68;99258.69;8400201;28;20324;-73
2022/04/10 16:53:37;;;;;;;;;;;;;;;7.57;60.68;99253.94;8397540;28;19991;-74
2022/04/10 16:57:38;;;;;;;;;;;;;;;7.55;60.67;99258.81;8397671;28;20314;-73
2022/04/10 17:01:39;;;;;;;;;;;;;;;7.63;60.33;99260.88;8398664;28;20009;-74
2022/04/10 17:05:40;;;;;;;;;;;;;;;7.63;60.50;99261.66;8399715;28;20484;-73
2022/04/10 17:09:41;;;;;;;;;;;;;;;7.56;61.25;99260.41;8399020;28;19991;-72
2022/04/10 17:13:43;;;;;;;;;;;;;;;7.40;59.95;99267.03;8399450;28;19971;-72
2022/04/10 17:17:44;;;;;;;;;;;;;;;7.06;59.69;99281.28;8399526;28;19982;-72
2022/04/10 17:21:44;;;;;;;;;;;;;;;6.76;60.43;99284.22;8396489;28;20021;-72
2022/04/10 17:25:48;;;;;;;;;;;;;;;6.43;61.34;99284.94;8398903;28;19987;-72
2022/04/10 17:29:49;;;;;;;;;;;;;;;6.05;62.01;99284.59;8398752;28;20029;-72
2022/04/10 17:33:50;;;;;;;;;;;;;;;5.87;62.41;99287.88;8398939;28;19975;-73
2022/04/10 17:37:52;;;;;;;;;;;;;;;5.74;62.78;99293.78;8398832;28;20397;-76
2022/04/10 17:41:53;;;;;;;;;;;;;;;5.57;62.83;99301.31;8392247;28;20316;-75
2022/04/10 17:45:53;;;;;;;;;;;;;;;5.39;63.35;99303.47;8389860;28;19967;-74
2022/04/10 17:49:55;;;;;;;;;;;;;;;5.32;63.69;99308.31;8384217;28;20121;-74
2022/04/10 17:53:56;;;;;;;;;;;;;;;5.28;64.22;99317.97;8396686;28;19983;-74
2022/04/10 17:57:57;;;;;;;;;;;;;;;5.13;63.29;99320.63;8397855;28;20569;-74
2022/04/10 18:01:58;;;;;;;;;;;;;;;5.08;63.03;99323.31;8398372;28;20103;-75
2022/04/10 18:06:01;;;;;;;;;;;;;;;4.96;63.89;99325.47;8398048;28;19982;-73
2022/04/10 18:10:05;;;;;;;;;;;;;;;4.80;64.21;99342.56;8397668;28;19987;-74
2022/04/10 18:14:07;;;;;;;;;;;;;;;4.63;64.38;99343.59;8397872;28;20430;-74
2022/04/10 18:18:10;;;;;;;;;;;;;;;4.53;65.08;99348.94;8394601;28;20347;-74
2022/04/10 18:22:11;;;;;;;;;;;;;;;4.29;66.03;99347.75;8396427;28;20007;-74
2022/04/10 18:26:16;;;;;;;;;;;;;;;4.32;66.92;99355.28;8398326;28;20020;-74
2022/04/10 18:30:21;;;;;;;;;;;;;;;4.29;67.72;99358.44;8360657;28;19991;-74
2022/04/10 18:34:22;;;;;;;;;;;;;;;4.32;67.27;99363.28;8361423;28;20450;-74
2022/04/10 18:38:24;;;;;;;;;;;;;;;4.27;68.14;99365.94;8397252;28;20291;-74
2022/04/10 18:42:25;;;;;;;;;;;;;;;4.28;68.46;99364.88;8396639;28;20304;-74
2022/04/10 18:46:49;;;;;;;;;;;;;;;4.29;68.77;99363.00;8389519;28;19993;-74
2022/04/10 18:50:50;;;;;;;;;;;;;;;4.29;70.28;99366.47;8408895;28;20048;-74
2022/04/10 18:54:53;;;;;;;;;;;;;;;4.38;70.72;99378.28;8393698;28;19985;-74
2022/04/10 18:59:13;;;;;;;;;;;;;;;4.38;70.77;99378.28;8377532;28;19967;-74
2022/04/10 19:03:14;;;;;;;;;;;;;;;4.41;70.82;99383.09;8406773;28;20128;-71
2022/04/10 19:07:15;;;;;;;;;;;;;;;4.50;71.93;99386.88;8391215;28;19975;-71
2022/04/10 19:11:18;;;;;;;;;;;;;;;4.47;72.53;99392.75;8385607;28;19987;-72
2022/04/10 19:15:19;;;;;;;;;;;;;;;4.56;72.16;99391.19;8375119;28;19972;-72
2022/04/10 19:19:23;;;;;;;;;;;;;;;4.53;72.39;99397.06;8390113;28;19972;-72
2022/04/10 19:23:25;;;;;;;;;;;;;;;4.37;73.34;99403.41;8405411;28;19974;-71
2022/04/10 19:27:34;;;;;;;;;;;;;;;4.45;73.30;99405.59;8412894;28;19974;-71
2022/04/10 19:31:36;;;;;;;;;;;;;;;4.59;72.60;99412.06;8381910;28;20036;-72
2022/04/10 19:35:38;;;;;;;;;;;;;;;4.59;72.24;99411.28;8369958;28;19980;-72
2022/04/10 19:39:41;;;;;;;;;;;;;;;4.45;72.50;99416.28;8390830;28;19967;-72
2022/04/10 19:43:44;;;;;;;;;;;;;;;4.23;72.88;99418.31;8366160;28;20342;-71
2022/04/10 19:47:46;;;;;;;;;;;;;;;4.08;72.94;99415.53;8363936;28;19971;-71
2022/04/10 19:51:47;;;;;;;;;;;;;;;3.91;73.34;99409.59;8377928;28;19987;-72
2022/04/10 19:55:50;;;;;;;;;;;;;;;3.79;74.17;99418.59;8359368;28;19971;-72
2022/04/10 19:59:52;;;;;;;;;;;;;;;3.65;75.21;99416.59;8358328;28;19975;-71
2022/04/10 20:03:53;;;;;;;;;;;;;;;3.50;75.76;99419.97;8359668;28;20453;-72
2022/04/10 20:07:55;;;;;;;;;;;;;;;3.45;76.34;99422.59;8326095;28;19975;-72
2022/04/10 20:11:57;;;;;;;;;;;;;;;3.29;77.15;99423.50;8381302;28;20113;-74
2022/04/10 20:15:59;;;;;;;;;;;;;;;3.28;77.57;99417.38;8401966;28;20346;-74
2022/04/10 20:20:03;;;;;;;;;;;;;;;3.35;77.30;99433.19;8397455;28;20355;-73
2022/04/10 20:24:06;;;;;;;;;;;;;;;3.40;77.00;99425.22;8399459;28;19975;-74
2022/04/10 20:28:08;;;;;;;;;;;;;;;3.54;77.09;99434.44;8400034;28;19971;-74
2022/04/10 20:32:09;;;;;;;;;;;;;;;3.54;76.74;99434.44;8389665;28;19988;-74
2022/04/10 20:36:11;;;;;;;;;;;;;;;3.53;76.53;99440.81;8368676;28;19990;-73
2022/04/10 20:40:12;;;;;;;;;;;;;;;3.47;77.00;99441.03;8387808;28;19975;-74
2022/04/10 20:44:13;;;;;;;;;;;;;;;3.47;77.21;99431.16;8399058;28;19978;-74
2022/04/10 20:48:14;;;;;;;;;;;;;;;3.46;77.35;99444.75;8399118;28;20001;-74
2022/04/10 20:52:14;;;;;;;;;;;;;;;3.40;77.63;99458.06;8398498;28;19987;-74
2022/04/10 20:56:15;;;;;;;;;;;;;;;3.29;78.17;99444.88;8381908;28;20461;-74
2022/04/10 21:00:17;;;;;;;;;;;;;;;3.15;78.40;99449.00;8384959;28;20025;-75
2022/04/10 21:04:18;;;;;;;;;;;;;;;3.09;79.11;99455.34;8408161;28;20056;-74
2022/04/10 21:08:19;;;;;;;;;;;;;;;2.96;79.22;99446.66;8397361;28;20430;-74
2022/04/10 21:12:21;;;;;;;;;;;;;;;2.98;79.60;99449.91;8398208;28;20041;-75
2022/04/10 21:16:22;;;;;;;;;;;;;;;3.10;79.29;99451.63;8385890;28;19971;-75
2022/04/10 21:20:22;;;;;;;;;;;;;;;3.19;79.70;99460.78;8378047;28;20003;-72